METAR AND TAF INFORMATION
METAR FOR KSTE
ADDS - METARS form results

(2148 UTC 18 July 2018)
Data provider http://aviationweather.gov/adds/metars/
 
METAR text: KSTE 182135Z AUTO 00000KT 10SM CLR 25/10 A3006 RMK AO2 T02510100
Conditions at: KSTE (STEVENS POINT , WI, US) observed 2135 UTC 18 July 2018
Temperature: 25.1°C (77°F)
Dewpoint: 10.0°C (50°F) [RH = 39%]
Pressure (altimeter): 30.06 inches Hg (1018.0 mb)
Winds: calm
Visibility: 10 or more miles (16+ km)
Ceiling: at least 12,000 feet AGL
Clouds: sky clear below 12,000 feet AGL
Weather: automated observation with no human augmentation;
there may or may not be significant weather present at this time

METAR text: KSTE 182115Z AUTO 14004KT 10SM CLR 25/10 A3007 RMK AO2 T02450100
Conditions at: KSTE (STEVENS POINT , WI, US) observed 2115 UTC 18 July 2018
Temperature: 24.5°C (76°F)
Dewpoint: 10.0°C (50°F) [RH = 40%]
Pressure (altimeter): 30.07 inches Hg (1018.4 mb)
Winds: from the SE (140 degrees) at 5 MPH (4 knots; 2.1 m/s)
Visibility: 10 or more miles (16+ km)
Ceiling: at least 12,000 feet AGL
Clouds: sky clear below 12,000 feet AGL
Weather: automated observation with no human augmentation;
there may or may not be significant weather present at this time

METAR text: KSTE 182055Z AUTO 00000KT 10SM CLR 24/10 A3008 RMK AO2 T02430101
Conditions at: KSTE (STEVENS POINT , WI, US) observed 2055 UTC 18 July 2018
Temperature: 24.3°C (76°F)
Dewpoint: 10.1°C (50°F) [RH = 41%]
Pressure (altimeter): 30.08 inches Hg (1018.7 mb)
Winds: calm
Visibility: 10 or more miles (16+ km)
Ceiling: at least 12,000 feet AGL
Clouds: sky clear below 12,000 feet AGL
Weather: automated observation with no human augmentation;
there may or may not be significant weather present at this time

 AIRPORT MAP

 RUNWAY INFORMATION
Runway 03 Runway length 6028 ft Runway width 120 ft
Runway elevation 1103 ft Runway displaced threshold 0 ft Runway heading 30
Runway 21 Runway length 6028 ft Runway width 120 ft
Runway elevation 1110 ft Runway displaced threshold 0 ft Runway heading 210
Runway 12 Runway length 3635 ft Runway width 75 ft
Runway elevation 1105 ft Runway displaced threshold 0 ft Runway heading 120
Runway 30 Runway length 3635 ft Runway width 75 ft
Runway elevation 1103 ft Runway displaced threshold 0 ft Runway heading 300

 AIRPORT FREQUENCIES
Type AWOS Name AWOS 3 Frequency 119.275 MHZ
Type CNTR Name MINNEAPOLI Frequency 124.4 MHZ
Type RDO Name GREEN BAY Frequency 110.6 MHZ
Type UNIC Name CTAF/UNICO Frequency 122.7 MHZ

 AIRPORT NEAR NAVIGATION AIDS



Powered by Virtual Airlines Manager [v2.6.2]